Startpagina
METAR-TAF:

METAR-TAF

Vliegvelden :

Mendoza, Argentinië

breedte: 32-50S, lengte: 068-47W, hoogte: 705 m

Actueel weer

Dit bericht is 41 minuten geleden gemaakt, om 08:00 UTC
Wind 2 kt uit het noorden
Temperatuur 19°C
Vochtigheid 68%
Druk 1007 hPa
Zicht 10 km of meer
geen wolken onder 1500 m en geen cumulonimbus

METAR: SAME 220800Z 36002KT CAVOK 19/13 Q1007

Tijdstip: 05:41 (08:41 UTC)

Verwachting

Dit bericht is 3 uur en het 41 minuten geleden gemaakt, om 05:00 UTC
Verwachting geldig van 22 om 06 UTC tot 23 om 06 UTC
Wind 5 kt uit het zuidzuidwesten
Zicht 10 km of meer
Verspreide wolken op 4000 ft
Kans 30% :
Tijdelijke
van 22 om 21 UTC tot 22 om 23 UTC
Wind 15 kt uit het zuiden
Zicht: 8000 m
Verspreide wolken op 3000 ft
Weinig wolken op 4000 ft, Stapelwolken.
Weinig wolken op 5000 ft

TAF: SAME 220500Z 2206/2306 20005KT 9999 SCT040 TN17/2210Z TX32/2220Z PROB30 TEMPO 2221/2223 18015KT 8000 RASH SCT030 FEW040TCU FEW050

Waarnemingen en weersverwachtingen van meer dan 4000 vliegvelden (METAR en TAF).

De beschikbare stations zijn de gele en rode punten op de kaart.

Ga met uw muis naar het station om de naam te zien.

Klik dan om waarnemingen en weersverwachtingen te zien.

kaart wijzigen: klik op de groene knoppen met een zwart kruis om in te zoomen, op de groene knop met een streepje om uit te zoomen of op de groene pijlen voor aangrenzende kaarten.


METAR-TAF: